sensor_id;sensor_type;location;lat;lon;timestamp;P1;durP1;ratioP1;P2;durP2;ratioP2
48363;SDS011;34170;54.364;18.582;2022-12-05T00:01:29;333.08;;;48.00;;
48363;SDS011;34170;54.364;18.582;2022-12-05T00:03:59;124.05;;;30.52;;
48363;SDS011;34170;54.364;18.582;2022-12-05T00:06:29;378.42;;;51.72;;
48363;SDS011;34170;54.364;18.582;2022-12-05T00:08:57;145.25;;;32.17;;
48363;SDS011;34170;54.364;18.582;2022-12-05T00:11:26;154.77;;;31.75;;
48363;SDS011;34170;54.364;18.582;2022-12-05T00:13:55;371.75;;;50.25;;
48363;SDS011;34170;54.364;18.582;2022-12-05T00:16:25;114.30;;;30.67;;
48363;SDS011;34170;54.364;18.582;2022-12-05T00:18:54;336.13;;;53.08;;
48363;SDS011;34170;54.364;18.582;2022-12-05T00:21:23;185.43;;;36.58;;
48363;SDS011;34170;54.364;18.582;2022-12-05T00:23:52;291.35;;;44.65;;
48363;SDS011;34170;54.364;18.582;2022-12-05T00:26:21;121.63;;;30.50;;
48363;SDS011;34170;54.364;18.582;2022-12-05T00:28:49;392.35;;;51.13;;
48363;SDS011;34170;54.364;18.582;2022-12-05T00:31:19;315.65;;;48.33;;
48363;SDS011;34170;54.364;18.582;2022-12-05T00:33:48;266.93;;;39.17;;
48363;SDS011;34170;54.364;18.582;2022-12-05T00:36:18;444.98;;;55.92;;
48363;SDS011;34170;54.364;18.582;2022-12-05T00:38:45;125.28;;;32.65;;
48363;SDS011;34170;54.364;18.582;2022-12-05T00:41:17;331.45;;;47.00;;
48363;SDS011;34170;54.364;18.582;2022-12-05T00:43:46;345.05;;;51.60;;
48363;SDS011;34170;54.364;18.582;2022-12-05T00:46:15;176.07;;;39.05;;
48363;SDS011;34170;54.364;18.582;2022-12-05T00:48:45;219.70;;;43.20;;
48363;SDS011;34170;54.364;18.582;2022-12-05T00:51:17;463.13;;;58.55;;
48363;SDS011;34170;54.364;18.582;2022-12-05T00:53:46;204.00;;;45.58;;
48363;SDS011;34170;54.364;18.582;2022-12-05T00:56:17;148.23;;;36.08;;
48363;SDS011;34170;54.364;18.582;2022-12-05T01:01:15;193.27;;;46.83;;
48363;SDS011;34170;54.364;18.582;2022-12-05T01:03:45;141.88;;;37.25;;
48363;SDS011;34170;54.364;18.582;2022-12-05T01:06:14;283.77;;;50.47;;
48363;SDS011;34170;54.364;18.582;2022-12-05T01:08:42;141.95;;;36.55;;
48363;SDS011;34170;54.364;18.582;2022-12-05T01:11:10;176.30;;;40.58;;
48363;SDS011;34170;54.364;18.582;2022-12-05T01:13:40;130.02;;;33.75;;
48363;SDS011;34170;54.364;18.582;2022-12-05T01:18:49;122.32;;;30.38;;
48363;SDS011;34170;54.364;18.582;2022-12-05T01:21:17;147.68;;;36.55;;
48363;SDS011;34170;54.364;18.582;2022-12-05T01:23:45;134.95;;;35.00;;
48363;SDS011;34170;54.364;18.582;2022-12-05T01:26:14;154.70;;;37.22;;
48363;SDS011;34170;54.364;18.582;2022-12-05T01:28:43;180.05;;;37.78;;
48363;SDS011;34170;54.364;18.582;2022-12-05T01:31:15;434.40;;;55.85;;
48363;SDS011;34170;54.364;18.582;2022-12-05T01:33:51;210.07;;;40.72;;
48363;SDS011;34170;54.364;18.582;2022-12-05T01:36:21;157.38;;;36.83;;
48363;SDS011;34170;54.364;18.582;2022-12-05T01:38:49;137.20;;;34.45;;
48363;SDS011;34170;54.364;18.582;2022-12-05T01:41:19;132.40;;;34.20;;
48363;SDS011;34170;54.364;18.582;2022-12-05T01:43:54;216.75;;;46.33;;
48363;SDS011;34170;54.364;18.582;2022-12-05T01:46:31;308.45;;;50.42;;
48363;SDS011;34170;54.364;18.582;2022-12-05T01:49:46;232.90;;;45.08;;
48363;SDS011;34170;54.364;18.582;2022-12-05T01:51:51;134.85;;;34.78;;
48363;SDS011;34170;54.364;18.582;2022-12-05T01:54:22;129.00;;;31.58;;
48363;SDS011;34170;54.364;18.582;2022-12-05T01:57:00;125.78;;;34.42;;
48363;SDS011;34170;54.364;18.582;2022-12-05T01:59:30;125.45;;;34.17;;
48363;SDS011;34170;54.364;18.582;2022-12-05T02:02:02;128.45;;;35.03;;
48363;SDS011;34170;54.364;18.582;2022-12-05T02:04:30;152.30;;;38.35;;
48363;SDS011;34170;54.364;18.582;2022-12-05T02:07:04;121.00;;;31.48;;
48363;SDS011;34170;54.364;18.582;2022-12-05T02:09:31;156.52;;;37.08;;
48363;SDS011;34170;54.364;18.582;2022-12-05T02:11:59;131.05;;;35.47;;
48363;SDS011;34170;54.364;18.582;2022-12-05T02:17:05;128.30;;;33.78;;
48363;SDS011;34170;54.364;18.582;2022-12-05T02:30:57;145.75;;;36.95;;
48363;SDS011;34170;54.364;18.582;2022-12-05T02:33:46;110.78;;;32.92;;
48363;SDS011;34170;54.364;18.582;2022-12-05T02:36:26;101.07;;;30.02;;
48363;SDS011;34170;54.364;18.582;2022-12-05T02:39:13;103.28;;;30.08;;
48363;SDS011;34170;54.364;18.582;2022-12-05T02:44:22;117.78;;;33.28;;
48363;SDS011;34170;54.364;18.582;2022-12-05T02:46:57;108.35;;;30.50;;
48363;SDS011;34170;54.364;18.582;2022-12-05T02:49:28;109.72;;;33.70;;
48363;SDS011;34170;54.364;18.582;2022-12-05T02:51:58;109.63;;;30.80;;
48363;SDS011;34170;54.364;18.582;2022-12-05T02:54:29;105.70;;;31.20;;
48363;SDS011;34170;54.364;18.582;2022-12-05T02:57:01;110.38;;;32.42;;
48363;SDS011;34170;54.364;18.582;2022-12-05T02:59:30;106.80;;;33.25;;
48363;SDS011;34170;54.364;18.582;2022-12-05T03:01:57;118.13;;;32.08;;
48363;SDS011;34170;54.364;18.582;2022-12-05T03:04:25;119.15;;;36.63;;
48363;SDS011;34170;54.364;18.582;2022-12-05T03:07:07;111.28;;;30.38;;
48363;SDS011;34170;54.364;18.582;2022-12-05T03:09:40;111.65;;;32.72;;
48363;SDS011;34170;54.364;18.582;2022-12-05T03:12:25;112.32;;;31.27;;
48363;SDS011;34170;54.364;18.582;2022-12-05T03:15:08;116.55;;;33.58;;
48363;SDS011;34170;54.364;18.582;2022-12-05T03:17:52;127.18;;;34.85;;
48363;SDS011;34170;54.364;18.582;2022-12-05T03:20:33;134.50;;;37.38;;
48363;SDS011;34170;54.364;18.582;2022-12-05T03:23:11;113.55;;;31.70;;
48363;SDS011;34170;54.364;18.582;2022-12-05T03:29:33;107.47;;;31.15;;
48363;SDS011;34170;54.364;18.582;2022-12-05T03:31:51;126.63;;;35.63;;
48363;SDS011;34170;54.364;18.582;2022-12-05T03:36:57;91.80;;;28.08;;
48363;SDS011;34170;54.364;18.582;2022-12-05T03:39:32;103.50;;;30.35;;
48363;SDS011;34170;54.364;18.582;2022-12-05T03:42:09;100.45;;;31.27;;
48363;SDS011;34170;54.364;18.582;2022-12-05T03:44:50;96.78;;;29.38;;
48363;SDS011;34170;54.364;18.582;2022-12-05T03:47:35;90.30;;;30.42;;
48363;SDS011;34170;54.364;18.582;2022-12-05T03:50:17;93.75;;;29.00;;
48363;SDS011;34170;54.364;18.582;2022-12-05T03:52:54;101.93;;;31.10;;
48363;SDS011;34170;54.364;18.582;2022-12-05T03:55:46;98.28;;;30.13;;
48363;SDS011;34170;54.364;18.582;2022-12-05T03:58:23;108.20;;;29.80;;
48363;SDS011;34170;54.364;18.582;2022-12-05T04:00:54;99.00;;;30.05;;
48363;SDS011;34170;54.364;18.582;2022-12-05T04:03:28;93.78;;;28.80;;
48363;SDS011;34170;54.364;18.582;2022-12-05T04:06:13;90.80;;;28.08;;
48363;SDS011;34170;54.364;18.582;2022-12-05T04:08:49;89.43;;;27.10;;
48363;SDS011;34170;54.364;18.582;2022-12-05T04:11:21;85.13;;;26.08;;
48363;SDS011;34170;54.364;18.582;2022-12-05T04:13:54;84.60;;;26.52;;
48363;SDS011;34170;54.364;18.582;2022-12-05T04:21:55;84.97;;;28.40;;
48363;SDS011;34170;54.364;18.582;2022-12-05T04:24:28;89.38;;;25.98;;
48363;SDS011;34170;54.364;18.582;2022-12-05T04:30:27;84.40;;;26.27;;
48363;SDS011;34170;54.364;18.582;2022-12-05T04:33:10;78.20;;;25.60;;
48363;SDS011;34170;54.364;18.582;2022-12-05T04:35:51;78.03;;;32.45;;
48363;SDS011;34170;54.364;18.582;2022-12-05T04:38:31;69.88;;;23.42;;
48363;SDS011;34170;54.364;18.582;2022-12-05T04:41:06;79.30;;;25.40;;
48363;SDS011;34170;54.364;18.582;2022-12-05T04:43:39;82.47;;;25.60;;
48363;SDS011;34170;54.364;18.582;2022-12-05T04:46:11;82.65;;;26.17;;
48363;SDS011;34170;54.364;18.582;2022-12-05T04:48:41;101.95;;;31.95;;
48363;SDS011;34170;54.364;18.582;2022-12-05T04:51:12;79.40;;;25.98;;
48363;SDS011;34170;54.364;18.582;2022-12-05T04:53:45;81.15;;;25.02;;
48363;SDS011;34170;54.364;18.582;2022-12-05T04:56:16;79.45;;;24.65;;
48363;SDS011;34170;54.364;18.582;2022-12-05T04:58:45;92.78;;;31.48;;
48363;SDS011;34170;54.364;18.582;2022-12-05T05:04:20;76.55;;;24.25;;
48363;SDS011;34170;54.364;18.582;2022-12-05T05:06:53;80.90;;;24.95;;
48363;SDS011;34170;54.364;18.582;2022-12-05T05:09:20;67.93;;;21.75;;
48363;SDS011;34170;54.364;18.582;2022-12-05T05:11:47;74.13;;;24.40;;
48363;SDS011;34170;54.364;18.582;2022-12-05T05:14:15;70.22;;;23.00;;
48363;SDS011;34170;54.364;18.582;2022-12-05T05:16:42;65.40;;;22.20;;
48363;SDS011;34170;54.364;18.582;2022-12-05T05:19:10;68.15;;;24.73;;
48363;SDS011;34170;54.364;18.582;2022-12-05T05:21:39;67.93;;;22.20;;
48363;SDS011;34170;54.364;18.582;2022-12-05T05:24:08;84.97;;;32.45;;
48363;SDS011;34170;54.364;18.582;2022-12-05T05:26:38;80.07;;;25.83;;
48363;SDS011;34170;54.364;18.582;2022-12-05T05:29:07;67.88;;;25.15;;
48363;SDS011;34170;54.364;18.582;2022-12-05T05:31:36;71.65;;;24.73;;
48363;SDS011;34170;54.364;18.582;2022-12-05T05:34:04;63.00;;;23.05;;
48363;SDS011;34170;54.364;18.582;2022-12-05T05:36:36;72.30;;;24.83;;
48363;SDS011;34170;54.364;18.582;2022-12-05T05:39:04;81.63;;;26.35;;
48363;SDS011;34170;54.364;18.582;2022-12-05T05:41:35;67.40;;;24.37;;
48363;SDS011;34170;54.364;18.582;2022-12-05T05:44:02;75.70;;;29.10;;
48363;SDS011;34170;54.364;18.582;2022-12-05T05:46:31;73.25;;;25.65;;
48363;SDS011;34170;54.364;18.582;2022-12-05T05:49:00;66.28;;;24.02;;
48363;SDS011;34170;54.364;18.582;2022-12-05T05:51:28;73.97;;;26.00;;
48363;SDS011;34170;54.364;18.582;2022-12-05T05:53:56;66.43;;;24.38;;
48363;SDS011;34170;54.364;18.582;2022-12-05T05:56:24;73.93;;;27.95;;
48363;SDS011;34170;54.364;18.582;2022-12-05T05:58:59;78.18;;;26.27;;
48363;SDS011;34170;54.364;18.582;2022-12-05T06:01:28;64.75;;;23.63;;
48363;SDS011;34170;54.364;18.582;2022-12-05T06:03:56;68.00;;;24.42;;
48363;SDS011;34170;54.364;18.582;2022-12-05T06:06:24;77.07;;;23.80;;
48363;SDS011;34170;54.364;18.582;2022-12-05T06:08:52;75.38;;;24.23;;
48363;SDS011;34170;54.364;18.582;2022-12-05T06:11:21;77.00;;;25.73;;
48363;SDS011;34170;54.364;18.582;2022-12-05T06:16:27;78.43;;;29.92;;
48363;SDS011;34170;54.364;18.582;2022-12-05T06:18:56;77.72;;;25.85;;
48363;SDS011;34170;54.364;18.582;2022-12-05T06:21:24;68.78;;;24.88;;
48363;SDS011;34170;54.364;18.582;2022-12-05T06:23:52;71.82;;;22.67;;
48363;SDS011;34170;54.364;18.582;2022-12-05T06:26:20;78.82;;;25.85;;
48363;SDS011;34170;54.364;18.582;2022-12-05T06:28:48;75.25;;;25.65;;
48363;SDS011;34170;54.364;18.582;2022-12-05T06:31:18;79.53;;;27.33;;
48363;SDS011;34170;54.364;18.582;2022-12-05T06:33:47;85.43;;;28.50;;
48363;SDS011;34170;54.364;18.582;2022-12-05T06:36:16;80.82;;;26.42;;
48363;SDS011;34170;54.364;18.582;2022-12-05T06:38:45;86.93;;;27.77;;
48363;SDS011;34170;54.364;18.582;2022-12-05T06:41:14;75.78;;;25.88;;
48363;SDS011;34170;54.364;18.582;2022-12-05T06:43:43;83.28;;;28.77;;
48363;SDS011;34170;54.364;18.582;2022-12-05T06:46:11;69.85;;;24.27;;
48363;SDS011;34170;54.364;18.582;2022-12-05T06:48:39;74.55;;;25.60;;
48363;SDS011;34170;54.364;18.582;2022-12-05T06:51:10;76.55;;;25.23;;
48363;SDS011;34170;54.364;18.582;2022-12-05T06:53:39;73.10;;;24.63;;
48363;SDS011;34170;54.364;18.582;2022-12-05T06:56:09;81.20;;;27.52;;
48363;SDS011;34170;54.364;18.582;2022-12-05T06:58:38;81.97;;;26.20;;
48363;SDS011;34170;54.364;18.582;2022-12-05T07:01:10;68.35;;;23.42;;
48363;SDS011;34170;54.364;18.582;2022-12-05T07:03:57;67.32;;;23.50;;
48363;SDS011;34170;54.364;18.582;2022-12-05T07:06:25;81.28;;;28.25;;
48363;SDS011;34170;54.364;18.582;2022-12-05T07:08:53;91.57;;;27.90;;
48363;SDS011;34170;54.364;18.582;2022-12-05T07:11:21;81.65;;;28.13;;
48363;SDS011;34170;54.364;18.582;2022-12-05T07:13:48;83.50;;;29.80;;
48363;SDS011;34170;54.364;18.582;2022-12-05T07:16:15;93.70;;;29.08;;
48363;SDS011;34170;54.364;18.582;2022-12-05T07:18:43;92.32;;;30.85;;
48363;SDS011;34170;54.364;18.582;2022-12-05T07:21:11;92.30;;;30.48;;
48363;SDS011;34170;54.364;18.582;2022-12-05T07:23:40;80.47;;;27.30;;
48363;SDS011;34170;54.364;18.582;2022-12-05T07:26:12;81.13;;;27.73;;
48363;SDS011;34170;54.364;18.582;2022-12-05T07:28:44;87.65;;;27.95;;
48363;SDS011;34170;54.364;18.582;2022-12-05T07:31:13;81.88;;;28.52;;
48363;SDS011;34170;54.364;18.582;2022-12-05T07:33:42;92.10;;;30.58;;
48363;SDS011;34170;54.364;18.582;2022-12-05T07:36:11;86.28;;;28.08;;
48363;SDS011;34170;54.364;18.582;2022-12-05T07:38:40;90.43;;;31.40;;
48363;SDS011;34170;54.364;18.582;2022-12-05T07:41:19;90.97;;;29.30;;
48363;SDS011;34170;54.364;18.582;2022-12-05T07:43:51;88.10;;;29.58;;
48363;SDS011;34170;54.364;18.582;2022-12-05T07:46:21;93.47;;;27.85;;
48363;SDS011;34170;54.364;18.582;2022-12-05T07:48:49;82.20;;;28.20;;
48363;SDS011;34170;54.364;18.582;2022-12-05T07:51:17;81.20;;;28.90;;
48363;SDS011;34170;54.364;18.582;2022-12-05T07:53:46;84.20;;;26.85;;
48363;SDS011;34170;54.364;18.582;2022-12-05T07:56:14;94.57;;;30.50;;
48363;SDS011;34170;54.364;18.582;2022-12-05T07:58:44;84.57;;;27.58;;
48363;SDS011;34170;54.364;18.582;2022-12-05T08:01:14;104.65;;;33.22;;
48363;SDS011;34170;54.364;18.582;2022-12-05T08:03:43;80.15;;;26.70;;
48363;SDS011;34170;54.364;18.582;2022-12-05T08:06:15;69.95;;;25.40;;
48363;SDS011;34170;54.364;18.582;2022-12-05T08:08:44;73.80;;;25.95;;
48363;SDS011;34170;54.364;18.582;2022-12-05T08:11:18;78.72;;;24.35;;
48363;SDS011;34170;54.364;18.582;2022-12-05T08:13:48;87.60;;;29.20;;
48363;SDS011;34170;54.364;18.582;2022-12-05T08:16:17;85.00;;;28.85;;
48363;SDS011;34170;54.364;18.582;2022-12-05T08:18:47;81.78;;;28.65;;
48363;SDS011;34170;54.364;18.582;2022-12-05T08:21:16;80.03;;;28.52;;
48363;SDS011;34170;54.364;18.582;2022-12-05T08:23:45;75.43;;;26.17;;
48363;SDS011;34170;54.364;18.582;2022-12-05T08:26:13;78.38;;;26.70;;
48363;SDS011;34170;54.364;18.582;2022-12-05T08:28:43;78.45;;;27.58;;
48363;SDS011;34170;54.364;18.582;2022-12-05T08:31:11;72.72;;;26.45;;
48363;SDS011;34170;54.364;18.582;2022-12-05T08:33:44;86.07;;;29.50;;
48363;SDS011;34170;54.364;18.582;2022-12-05T08:36:12;84.95;;;27.83;;
48363;SDS011;34170;54.364;18.582;2022-12-05T08:38:41;85.80;;;30.52;;
48363;SDS011;34170;54.364;18.582;2022-12-05T08:41:11;81.30;;;27.00;;
48363;SDS011;34170;54.364;18.582;2022-12-05T08:43:42;83.65;;;26.60;;
48363;SDS011;34170;54.364;18.582;2022-12-05T08:46:10;77.82;;;26.15;;
48363;SDS011;34170;54.364;18.582;2022-12-05T08:48:38;78.47;;;26.27;;
48363;SDS011;34170;54.364;18.582;2022-12-05T08:51:07;80.75;;;27.65;;
48363;SDS011;34170;54.364;18.582;2022-12-05T08:53:36;87.50;;;26.92;;
48363;SDS011;34170;54.364;18.582;2022-12-05T08:56:11;88.20;;;29.98;;
48363;SDS011;34170;54.364;18.582;2022-12-05T08:58:38;81.07;;;26.67;;
48363;SDS011;34170;54.364;18.582;2022-12-05T09:04:05;77.03;;;26.70;;
48363;SDS011;34170;54.364;18.582;2022-12-05T09:06:33;88.45;;;27.88;;
48363;SDS011;34170;54.364;18.582;2022-12-05T09:09:04;85.40;;;30.23;;
48363;SDS011;34170;54.364;18.582;2022-12-05T09:11:34;87.40;;;28.48;;
48363;SDS011;34170;54.364;18.582;2022-12-05T09:14:03;82.45;;;26.30;;
48363;SDS011;34170;54.364;18.582;2022-12-05T09:16:32;85.85;;;31.00;;
48363;SDS011;34170;54.364;18.582;2022-12-05T09:19:26;75.72;;;26.48;;
48363;SDS011;34170;54.364;18.582;2022-12-05T09:21:54;83.63;;;28.83;;
48363;SDS011;34170;54.364;18.582;2022-12-05T09:24:21;75.90;;;26.08;;
48363;SDS011;34170;54.364;18.582;2022-12-05T09:26:49;74.03;;;24.75;;
48363;SDS011;34170;54.364;18.582;2022-12-05T09:29:16;68.38;;;24.88;;
48363;SDS011;34170;54.364;18.582;2022-12-05T09:31:45;79.13;;;28.08;;
48363;SDS011;34170;54.364;18.582;2022-12-05T09:34:15;94.40;;;29.48;;
48363;SDS011;34170;54.364;18.582;2022-12-05T09:36:45;87.82;;;30.73;;
48363;SDS011;34170;54.364;18.582;2022-12-05T09:39:24;105.82;;;33.58;;
48363;SDS011;34170;54.364;18.582;2022-12-05T09:42:08;104.88;;;35.38;;
48363;SDS011;34170;54.364;18.582;2022-12-05T09:49:50;110.95;;;33.60;;
48363;SDS011;34170;54.364;18.582;2022-12-05T09:52:27;103.47;;;32.60;;
48363;SDS011;34170;54.364;18.582;2022-12-05T09:55:02;103.50;;;30.55;;
48363;SDS011;34170;54.364;18.582;2022-12-05T09:57:37;110.97;;;32.58;;
48363;SDS011;34170;54.364;18.582;2022-12-05T10:00:09;113.88;;;34.42;;
48363;SDS011;34170;54.364;18.582;2022-12-05T10:13:26;96.82;;;31.42;;
48363;SDS011;34170;54.364;18.582;2022-12-05T10:19:28;103.00;;;29.70;;
48363;SDS011;34170;54.364;18.582;2022-12-05T10:22:00;88.47;;;29.60;;
48363;SDS011;34170;54.364;18.582;2022-12-05T10:24:37;101.95;;;32.55;;
48363;SDS011;34170;54.364;18.582;2022-12-05T10:27:10;114.18;;;32.17;;
48363;SDS011;34170;54.364;18.582;2022-12-05T10:29:57;107.25;;;31.35;;
48363;SDS011;34170;54.364;18.582;2022-12-05T10:33:15;106.07;;;33.58;;
48363;SDS011;34170;54.364;18.582;2022-12-05T10:37:57;109.28;;;31.95;;
48363;SDS011;34170;54.364;18.582;2022-12-05T10:40:35;111.80;;;32.83;;
48363;SDS011;34170;54.364;18.582;2022-12-05T10:43:04;104.43;;;32.33;;
48363;SDS011;34170;54.364;18.582;2022-12-05T10:45:41;111.43;;;33.15;;
48363;SDS011;34170;54.364;18.582;2022-12-05T10:48:12;97.95;;;29.52;;
48363;SDS011;34170;54.364;18.582;2022-12-05T10:50:42;97.82;;;33.15;;
48363;SDS011;34170;54.364;18.582;2022-12-05T10:53:12;96.68;;;31.02;;
48363;SDS011;34170;54.364;18.582;2022-12-05T10:55:43;110.93;;;34.47;;
48363;SDS011;34170;54.364;18.582;2022-12-05T10:58:37;117.30;;;32.13;;
48363;SDS011;34170;54.364;18.582;2022-12-05T11:01:08;117.47;;;34.78;;
48363;SDS011;34170;54.364;18.582;2022-12-05T11:03:39;126.57;;;36.70;;
48363;SDS011;34170;54.364;18.582;2022-12-05T11:06:16;134.90;;;37.28;;
48363;SDS011;34170;54.364;18.582;2022-12-05T11:08:50;124.65;;;37.45;;
48363;SDS011;34170;54.364;18.582;2022-12-05T11:12:04;131.05;;;38.50;;
48363;SDS011;34170;54.364;18.582;2022-12-05T11:14:32;118.85;;;36.63;;
48363;SDS011;34170;54.364;18.582;2022-12-05T11:17:03;111.40;;;32.78;;
48363;SDS011;34170;54.364;18.582;2022-12-05T11:22:03;105.00;;;34.22;;
48363;SDS011;34170;54.364;18.582;2022-12-05T11:24:35;87.25;;;27.90;;
48363;SDS011;34170;54.364;18.582;2022-12-05T11:27:23;95.25;;;32.10;;
48363;SDS011;34170;54.364;18.582;2022-12-05T11:32:41;84.78;;;26.45;;
48363;SDS011;34170;54.364;18.582;2022-12-05T11:37:42;87.32;;;28.58;;
48363;SDS011;34170;54.364;18.582;2022-12-05T11:48:32;77.00;;;24.65;;
48363;SDS011;34170;54.364;18.582;2022-12-05T11:53:39;77.07;;;26.95;;
48363;SDS011;34170;54.364;18.582;2022-12-05T11:59:41;79.80;;;27.60;;
48363;SDS011;34170;54.364;18.582;2022-12-05T12:02:47;81.22;;;27.10;;
48363;SDS011;34170;54.364;18.582;2022-12-05T12:05:30;71.72;;;24.98;;
48363;SDS011;34170;54.364;18.582;2022-12-05T12:08:17;71.15;;;24.65;;
48363;SDS011;34170;54.364;18.582;2022-12-05T12:10:57;73.07;;;24.58;;
48363;SDS011;34170;54.364;18.582;2022-12-05T12:21:38;84.65;;;28.75;;
48363;SDS011;34170;54.364;18.582;2022-12-05T12:34:59;79.05;;;26.75;;
48363;SDS011;34170;54.364;18.582;2022-12-05T12:38:10;82.25;;;28.45;;
48363;SDS011;34170;54.364;18.582;2022-12-05T12:40:52;88.93;;;30.23;;
48363;SDS011;34170;54.364;18.582;2022-12-05T12:49:00;83.45;;;31.77;;
48363;SDS011;34170;54.364;18.582;2022-12-05T12:52:15;85.00;;;30.48;;
48363;SDS011;34170;54.364;18.582;2022-12-05T13:03:32;82.03;;;26.67;;
48363;SDS011;34170;54.364;18.582;2022-12-05T13:08:42;74.40;;;26.67;;
48363;SDS011;34170;54.364;18.582;2022-12-05T13:11:16;79.28;;;28.13;;
48363;SDS011;34170;54.364;18.582;2022-12-05T13:13:46;89.03;;;31.35;;
48363;SDS011;34170;54.364;18.582;2022-12-05T13:16:33;104.82;;;32.13;;
48363;SDS011;34170;54.364;18.582;2022-12-05T13:19:17;88.85;;;29.42;;
48363;SDS011;34170;54.364;18.582;2022-12-05T13:22:07;89.97;;;30.17;;
48363;SDS011;34170;54.364;18.582;2022-12-05T13:24:34;93.20;;;33.47;;
48363;SDS011;34170;54.364;18.582;2022-12-05T13:27:05;90.60;;;32.10;;
48363;SDS011;34170;54.364;18.582;2022-12-05T13:29:42;90.95;;;30.75;;
48363;SDS011;34170;54.364;18.582;2022-12-05T13:32:27;104.30;;;33.90;;
48363;SDS011;34170;54.364;18.582;2022-12-05T13:37:33;122.78;;;39.33;;
48363;SDS011;34170;54.364;18.582;2022-12-05T13:40:30;119.90;;;38.28;;
48363;SDS011;34170;54.364;18.582;2022-12-05T13:43:27;110.13;;;34.78;;
48363;SDS011;34170;54.364;18.582;2022-12-05T13:46:04;99.53;;;35.35;;
48363;SDS011;34170;54.364;18.582;2022-12-05T13:48:33;97.13;;;34.47;;
48363;SDS011;34170;54.364;18.582;2022-12-05T13:51:07;103.03;;;35.05;;
48363;SDS011;34170;54.364;18.582;2022-12-05T13:53:40;96.03;;;31.02;;
48363;SDS011;34170;54.364;18.582;2022-12-05T14:01:40;95.13;;;33.95;;
48363;SDS011;34170;54.364;18.582;2022-12-05T14:07:10;100.78;;;32.42;;
48363;SDS011;34170;54.364;18.582;2022-12-05T14:25:52;102.20;;;35.35;;
48363;SDS011;34170;54.364;18.582;2022-12-05T14:39:30;110.03;;;34.20;;
48363;SDS011;34170;54.364;18.582;2022-12-05T14:42:03;97.05;;;34.38;;
48363;SDS011;34170;54.364;18.582;2022-12-05T14:44:45;109.57;;;36.83;;
48363;SDS011;34170;54.364;18.582;2022-12-05T14:47:18;102.18;;;35.83;;
48363;SDS011;34170;54.364;18.582;2022-12-05T14:49:53;102.25;;;37.60;;
48363;SDS011;34170;54.364;18.582;2022-12-05T14:52:24;107.45;;;38.85;;
48363;SDS011;34170;54.364;18.582;2022-12-05T14:55:01;112.03;;;38.42;;
48363;SDS011;34170;54.364;18.582;2022-12-05T14:57:35;104.13;;;35.85;;
48363;SDS011;34170;54.364;18.582;2022-12-05T15:00:17;106.88;;;34.55;;
48363;SDS011;34170;54.364;18.582;2022-12-05T15:02:50;93.60;;;35.33;;
48363;SDS011;34170;54.364;18.582;2022-12-05T15:07:59;96.53;;;37.20;;
48363;SDS011;34170;54.364;18.582;2022-12-05T15:10:33;105.38;;;39.63;;
48363;SDS011;34170;54.364;18.582;2022-12-05T15:13:07;102.68;;;39.67;;
48363;SDS011;34170;54.364;18.582;2022-12-05T15:15:45;95.65;;;37.05;;
48363;SDS011;34170;54.364;18.582;2022-12-05T15:18:22;90.60;;;36.38;;
48363;SDS011;34170;54.364;18.582;2022-12-05T15:29:12;111.78;;;38.25;;
48363;SDS011;34170;54.364;18.582;2022-12-05T15:34:17;118.57;;;41.42;;
48363;SDS011;34170;54.364;18.582;2022-12-05T15:36:55;106.25;;;40.55;;
48363;SDS011;34170;54.364;18.582;2022-12-05T15:39:24;114.07;;;42.53;;
48363;SDS011;34170;54.364;18.582;2022-12-05T15:41:55;105.38;;;38.03;;
48363;SDS011;34170;54.364;18.582;2022-12-05T15:44:26;116.03;;;39.05;;
48363;SDS011;34170;54.364;18.582;2022-12-05T15:47:03;125.25;;;48.83;;
48363;SDS011;34170;54.364;18.582;2022-12-05T15:49:30;121.13;;;41.30;;
48363;SDS011;34170;54.364;18.582;2022-12-05T15:52:01;129.40;;;43.03;;
48363;SDS011;34170;54.364;18.582;2022-12-05T15:54:44;124.90;;;43.05;;
48363;SDS011;34170;54.364;18.582;2022-12-05T15:57:17;135.85;;;42.05;;
48363;SDS011;34170;54.364;18.582;2022-12-05T16:00:12;129.18;;;42.10;;
48363;SDS011;34170;54.364;18.582;2022-12-05T16:02:44;124.60;;;40.53;;
48363;SDS011;34170;54.364;18.582;2022-12-05T16:05:21;130.90;;;44.05;;
48363;SDS011;34170;54.364;18.582;2022-12-05T16:07:56;119.00;;;40.20;;
48363;SDS011;34170;54.364;18.582;2022-12-05T16:10:24;115.07;;;39.60;;
48363;SDS011;34170;54.364;18.582;2022-12-05T16:12:55;138.23;;;42.83;;
48363;SDS011;34170;54.364;18.582;2022-12-05T16:15:30;131.98;;;43.03;;
48363;SDS011;34170;54.364;18.582;2022-12-05T16:17:59;117.30;;;38.08;;
48363;SDS011;34170;54.364;18.582;2022-12-05T16:23:02;128.07;;;39.35;;
48363;SDS011;34170;54.364;18.582;2022-12-05T16:25:32;111.40;;;38.75;;
48363;SDS011;34170;54.364;18.582;2022-12-05T16:28:11;122.35;;;39.53;;
48363;SDS011;34170;54.364;18.582;2022-12-05T16:30:57;127.72;;;41.85;;
48363;SDS011;34170;54.364;18.582;2022-12-05T16:33:28;138.27;;;44.15;;
48363;SDS011;34170;54.364;18.582;2022-12-05T16:36:12;134.70;;;43.85;;
48363;SDS011;34170;54.364;18.582;2022-12-05T16:38:40;129.35;;;42.03;;
48363;SDS011;34170;54.364;18.582;2022-12-05T16:41:09;135.50;;;40.92;;
48363;SDS011;34170;54.364;18.582;2022-12-05T16:43:42;148.32;;;43.72;;
48363;SDS011;34170;54.364;18.582;2022-12-05T16:48:40;131.77;;;40.85;;
48363;SDS011;34170;54.364;18.582;2022-12-05T16:53:41;124.55;;;38.42;;
48363;SDS011;34170;54.364;18.582;2022-12-05T16:56:16;135.77;;;41.10;;
48363;SDS011;34170;54.364;18.582;2022-12-05T16:58:46;132.52;;;42.38;;
48363;SDS011;34170;54.364;18.582;2022-12-05T17:01:18;120.05;;;39.47;;
48363;SDS011;34170;54.364;18.582;2022-12-05T17:03:47;122.05;;;37.83;;
48363;SDS011;34170;54.364;18.582;2022-12-05T17:06:16;117.40;;;37.35;;
48363;SDS011;34170;54.364;18.582;2022-12-05T17:08:47;116.18;;;37.60;;
48363;SDS011;34170;54.364;18.582;2022-12-05T17:13:42;118.60;;;38.58;;
48363;SDS011;34170;54.364;18.582;2022-12-05T17:16:11;123.28;;;39.17;;
48363;SDS011;34170;54.364;18.582;2022-12-05T17:18:38;126.00;;;38.58;;
48363;SDS011;34170;54.364;18.582;2022-12-05T17:21:09;130.70;;;41.47;;
48363;SDS011;34170;54.364;18.582;2022-12-05T17:23:39;119.07;;;37.55;;
48363;SDS011;34170;54.364;18.582;2022-12-05T17:26:14;142.02;;;39.00;;
48363;SDS011;34170;54.364;18.582;2022-12-05T17:28:43;122.88;;;38.95;;
48363;SDS011;34170;54.364;18.582;2022-12-05T17:31:13;134.90;;;41.08;;
48363;SDS011;34170;54.364;18.582;2022-12-05T17:33:43;133.95;;;43.22;;
48363;SDS011;34170;54.364;18.582;2022-12-05T17:36:12;124.20;;;40.58;;
48363;SDS011;34170;54.364;18.582;2022-12-05T17:38:40;130.35;;;37.63;;
48363;SDS011;34170;54.364;18.582;2022-12-05T17:41:10;132.43;;;39.83;;
48363;SDS011;34170;54.364;18.582;2022-12-05T17:43:42;125.38;;;39.40;;